Time;durP1;ratioP1;P1;durP2;ratioP2;P2;SDS_P1;SDS_P2;PMS_P1;PMS_P2;Temp;Humidity;BMP_temperature;BMP_pressure;BME280_temperature;BME280_humidity;BME280_pressure;Samples;Min_cycle;Max_cycle;Signal;HPM_P1;HPM_P2
2021/10/16 00:00:17;;;;;;;;;;;9.80;99.90;;;;;;1959941;71;20212;-75
2021/10/16 00:02:43;;;;;;;;;;;9.90;99.90;;;;;;1951963;71;20208;-75
2021/10/16 00:05:10;;;;;;;;;;;9.90;99.90;;;;;;1954880;71;20554;-76
2021/10/16 00:07:37;;;;;;;;;;;10.00;99.90;;;;;;1949389;71;20206;-75
2021/10/16 00:10:04;;;;;;;;;;;10.00;99.90;;;;;;1955645;71;20479;-75
2021/10/16 00:12:31;;;;;;;;;;;9.90;99.90;;;;;;1956597;71;20446;-76
2021/10/16 00:14:58;;;;;;;;;;;9.90;99.90;;;;;;1958305;71;20363;-76
2021/10/16 00:17:25;;;;;;;;;;;9.90;99.90;;;;;;1955661;71;20232;-76
2021/10/16 00:19:52;;;;;;;;;;;10.00;99.90;;;;;;1955571;71;20175;-76
2021/10/16 00:22:20;;;;;;;;;;;10.00;99.90;;;;;;1954625;71;20178;-76
2021/10/16 00:24:50;;;;;;;;;;;9.90;99.90;;;;;;1955819;71;20202;-76
2021/10/16 00:27:17;;;;;;;;;;;9.90;99.90;;;;;;1946907;71;20444;-73
2021/10/16 00:29:44;;;;;;;;;;;10.00;99.90;;;;;;1888568;74;20116;-73
2021/10/16 00:32:11;;;;;;;;;;;10.00;99.90;;;;;;1879140;75;20293;-73
2021/10/16 00:34:38;;;;;;;;;;;10.10;99.90;;;;;;1882027;75;20464;-74
2021/10/16 00:37:05;;;;;;;;;;;10.00;99.90;;;;;;1886040;75;20232;-73
2021/10/16 00:39:31;;;;;;;;;;;10.10;99.90;;;;;;1885537;75;20214;-73
2021/10/16 00:41:58;;;;;;;;;;;10.10;99.90;;;;;;1881287;75;20141;-74
2021/10/16 00:44:26;;;;;;;;;;;10.00;99.90;;;;;;1882291;75;20157;-73
2021/10/16 00:46:58;;;;;;;;;;;10.00;99.90;;;;;;1884423;75;20119;-74
2021/10/16 00:49:25;;;;;;;;;;;9.90;99.90;;;;;;1882716;75;20127;-73
2021/10/16 00:51:52;;;;;;;;;;;10.00;99.90;;;;;;1886330;75;20166;-74
2021/10/16 00:54:20;;;;;;;;;;;10.00;99.90;;;;;;1887446;75;20179;-73
2021/10/16 00:56:49;;;;;;;;;;;10.10;99.90;;;;;;1884273;75;20125;-73
2021/10/16 00:59:17;;;;;;;;;;;10.10;99.90;;;;;;1893623;75;20189;-73
2021/10/16 01:01:44;;;;;;;;;;;10.10;99.90;;;;;;1884347;75;20161;-73
2021/10/16 01:04:11;;;;;;;;;;;10.00;99.90;;;;;;1883303;75;20159;-74
2021/10/16 01:06:38;;;;;;;;;;;10.00;99.90;;;;;;1885166;75;20116;-73
2021/10/16 01:09:09;;;;;;;;;;;10.00;99.90;;;;;;1886775;75;20172;-73
2021/10/16 01:11:35;;;;;;;;;;;9.90;99.90;;;;;;1876529;75;20184;-74
2021/10/16 01:14:06;;;;;;;;;;;9.90;99.90;;;;;;1889923;75;20765;-73
2021/10/16 01:16:34;;;;;;;;;;;9.90;99.90;;;;;;1881926;75;20128;-73
2021/10/16 01:19:01;;;;;;;;;;;9.80;99.90;;;;;;1887681;75;20190;-73
2021/10/16 01:21:29;;;;;;;;;;;9.70;99.90;;;;;;1888648;75;20206;-73
2021/10/16 01:23:58;;;;;;;;;;;9.70;99.90;;;;;;1887240;75;20130;-73
2021/10/16 01:26:26;;;;;;;;;;;9.80;99.90;;;;;;1887916;75;20205;-73
2021/10/16 01:28:54;;;;;;;;;;;9.70;99.90;;;;;;1884810;75;20217;-73
2021/10/16 01:31:22;;;;;;;;;;;9.60;99.90;;;;;;1880193;75;20216;-72
2021/10/16 01:33:49;;;;;;;;;;;9.70;99.90;;;;;;1885684;75;21166;-73
2021/10/16 01:36:15;;;;;;;;;;;9.70;99.90;;;;;;1885618;75;20170;-73
2021/10/16 01:38:42;;;;;;;;;;;9.80;99.90;;;;;;1878418;75;20518;-73
2021/10/16 01:41:09;;;;;;;;;;;9.90;99.90;;;;;;1882666;74;20209;-73
2021/10/16 01:43:36;;;;;;;;;;;9.90;99.90;;;;;;1887815;75;20116;-73
2021/10/16 01:46:03;;;;;;;;;;;9.80;99.90;;;;;;1884454;75;20520;-73
2021/10/16 01:48:30;;;;;;;;;;;9.70;99.90;;;;;;1886853;75;20482;-73
2021/10/16 01:50:56;;;;;;;;;;;9.60;99.90;;;;;;1887967;75;20122;-73
2021/10/16 01:53:23;;;;;;;;;;;9.70;99.90;;;;;;1890054;75;20478;-73
2021/10/16 01:55:50;;;;;;;;;;;9.70;99.90;;;;;;1885517;75;20269;-73
2021/10/16 01:58:17;;;;;;;;;;;9.70;99.90;;;;;;1883198;75;20121;-72
2021/10/16 02:00:46;;;;;;;;;;;9.60;99.90;;;;;;1885937;75;20162;-73
2021/10/16 02:03:13;;;;;;;;;;;9.60;99.90;;;;;;1886872;75;20197;-76
2021/10/16 02:05:44;;;;;;;;;;;9.60;99.90;;;;;;1889803;75;20178;-72
2021/10/16 02:08:11;;;;;;;;;;;9.50;99.90;;;;;;1880259;75;20261;-74
2021/10/16 02:10:38;;;;;;;;;;;9.60;99.90;;;;;;1883347;75;20218;-75
2021/10/16 02:13:06;;;;;;;;;;;9.60;99.90;;;;;;1882826;75;20164;-74
2021/10/16 02:15:33;;;;;;;;;;;9.60;99.90;;;;;;1889354;75;20118;-74
2021/10/16 02:17:59;;;;;;;;;;;9.70;99.90;;;;;;1887712;75;20177;-74
2021/10/16 02:20:26;;;;;;;;;;;9.70;99.90;;;;;;1885632;75;20183;-75
2021/10/16 02:22:53;;;;;;;;;;;9.80;99.90;;;;;;1884865;75;20420;-74
2021/10/16 02:25:20;;;;;;;;;;;9.80;99.90;;;;;;1881940;75;20180;-74
2021/10/16 02:27:47;;;;;;;;;;;9.80;99.90;;;;;;1885177;75;20498;-74
2021/10/16 02:30:13;;;;;;;;;;;9.80;99.90;;;;;;1886107;75;20122;-75
2021/10/16 02:32:40;;;;;;;;;;;9.80;99.90;;;;;;1883582;75;20178;-74
2021/10/16 02:35:07;;;;;;;;;;;9.90;99.90;;;;;;1893952;75;20419;-75
2021/10/16 02:37:34;;;;;;;;;;;9.80;99.90;;;;;;1884547;75;20491;-75
2021/10/16 02:40:01;;;;;;;;;;;9.90;99.90;;;;;;1886077;75;20175;-75
2021/10/16 02:42:28;;;;;;;;;;;9.90;99.90;;;;;;1886469;75;20485;-74
2021/10/16 02:44:56;;;;;;;;;;;9.90;99.90;;;;;;1883138;75;20549;-75
2021/10/16 02:47:27;;;;;;;;;;;10.00;99.90;;;;;;1883063;75;20198;-75
2021/10/16 02:49:53;;;;;;;;;;;9.90;99.90;;;;;;1883567;75;20199;-75
2021/10/16 02:52:20;;;;;;;;;;;9.90;99.90;;;;;;1885740;75;20206;-75
2021/10/16 02:54:46;;;;;;;;;;;9.80;99.90;;;;;;1886370;75;20195;-75
2021/10/16 02:57:13;;;;;;;;;;;9.80;99.90;;;;;;1887130;75;20194;-75
2021/10/16 02:59:40;;;;;;;;;;;9.70;99.90;;;;;;1885904;75;20135;-75
2021/10/16 03:02:07;;;;;;;;;;;9.70;99.90;;;;;;1897278;75;20163;-74
2021/10/16 03:04:33;;;;;;;;;;;9.80;99.90;;;;;;1882707;75;20421;-75
2021/10/16 03:07:00;;;;;;;;;;;9.70;99.90;;;;;;1884819;75;20221;-75
2021/10/16 03:09:27;;;;;;;;;;;9.80;99.90;;;;;;1879400;75;20495;-75
2021/10/16 03:11:54;;;;;;;;;;;9.80;99.90;;;;;;1878815;75;20250;-75
2021/10/16 03:14:21;;;;;;;;;;;9.80;99.90;;;;;;1884113;75;20235;-75
2021/10/16 03:16:49;;;;;;;;;;;9.70;99.90;;;;;;1886688;75;20189;-75
2021/10/16 03:19:16;;;;;;;;;;;9.70;99.90;;;;;;1887384;75;20565;-74
2021/10/16 03:21:43;;;;;;;;;;;9.70;99.90;;;;;;1886772;75;20237;-74
2021/10/16 03:24:10;;;;;;;;;;;9.80;99.90;;;;;;1887206;75;20181;-76
2021/10/16 03:26:37;;;;;;;;;;;9.80;99.90;;;;;;1883442;75;20381;-75
2021/10/16 03:29:03;;;;;;;;;;;9.80;99.90;;;;;;1884986;75;20226;-75
2021/10/16 03:31:30;;;;;;;;;;;9.80;99.90;;;;;;1887081;75;20265;-75
2021/10/16 03:33:57;;;;;;;;;;;9.80;99.90;;;;;;1881162;75;20475;-74
2021/10/16 03:36:24;;;;;;;;;;;9.70;99.90;;;;;;1884562;75;20167;-74
2021/10/16 03:38:51;;;;;;;;;;;9.70;99.90;;;;;;1880035;75;20490;-74
2021/10/16 03:41:17;;;;;;;;;;;9.80;99.90;;;;;;1880915;74;20517;-75
2021/10/16 03:43:44;;;;;;;;;;;9.80;99.90;;;;;;1886224;75;20217;-74
2021/10/16 03:46:11;;;;;;;;;;;9.90;99.90;;;;;;1891068;75;20434;-75
2021/10/16 03:48:38;;;;;;;;;;;9.80;99.90;;;;;;1880382;75;20183;-75
2021/10/16 03:51:04;;;;;;;;;;;9.80;99.90;;;;;;1888146;75;20167;-75
2021/10/16 03:53:31;;;;;;;;;;;9.90;99.90;;;;;;1888934;75;20162;-75
2021/10/16 03:55:58;;;;;;;;;;;9.80;99.90;;;;;;1884684;75;20181;-75
2021/10/16 03:58:25;;;;;;;;;;;9.90;99.90;;;;;;1887237;75;20842;-75
2021/10/16 04:00:57;;;;;;;;;;;9.90;99.90;;;;;;1885805;75;20110;-75
2021/10/16 04:03:20;;;;;;;;;;;9.90;99.90;;;;;;1883720;75;20459;-75
2021/10/16 04:05:47;;;;;;;;;;;9.80;99.90;;;;;;1884918;75;20169;-75
2021/10/16 04:08:14;;;;;;;;;;;9.90;99.90;;;;;;1881916;75;20388;-75
2021/10/16 04:10:41;;;;;;;;;;;9.90;99.90;;;;;;1883201;75;20261;-75
2021/10/16 04:13:07;;;;;;;;;;;9.90;99.90;;;;;;1885522;74;20215;-75
2021/10/16 04:15:34;;;;;;;;;;;9.90;99.90;;;;;;1885645;75;20198;-75
2021/10/16 04:18:01;;;;;;;;;;;9.90;99.90;;;;;;1881885;75;20169;-75
2021/10/16 04:20:28;;;;;;;;;;;9.90;99.90;;;;;;1894441;74;20151;-75
2021/10/16 04:22:55;;;;;;;;;;;10.00;99.90;;;;;;1885413;75;20226;-75
2021/10/16 04:25:21;;;;;;;;;;;9.90;99.90;;;;;;1885673;75;20226;-75
2021/10/16 04:27:48;;;;;;;;;;;10.00;99.90;;;;;;1885197;75;20119;-75
2021/10/16 04:30:15;;;;;;;;;;;10.00;99.90;;;;;;1890873;75;20197;-75
2021/10/16 04:32:42;;;;;;;;;;;10.00;99.90;;;;;;1885556;75;20359;-74
2021/10/16 04:35:09;;;;;;;;;;;10.00;99.90;;;;;;1889075;75;20500;-75
2021/10/16 04:37:37;;;;;;;;;;;10.00;99.90;;;;;;1887337;75;20142;-74
2021/10/16 04:40:17;;;;;;;;;;;10.00;99.90;;;;;;1878156;75;20238;-74
2021/10/16 04:42:42;;;;;;;;;;;10.00;99.90;;;;;;1882112;74;20198;-74
2021/10/16 04:45:09;;;;;;;;;;;10.00;99.90;;;;;;1887118;75;20207;-75
2021/10/16 04:47:36;;;;;;;;;;;10.10;99.90;;;;;;1883974;75;20141;-74
2021/10/16 04:50:04;;;;;;;;;;;10.00;99.90;;;;;;1884282;75;20146;-74
2021/10/16 04:52:32;;;;;;;;;;;10.00;99.90;;;;;;1878452;75;20199;-75
2021/10/16 04:54:59;;;;;;;;;;;10.00;99.90;;;;;;1887813;75;20288;-75
2021/10/16 04:57:26;;;;;;;;;;;9.90;99.90;;;;;;1886379;75;20761;-75
2021/10/16 04:59:53;;;;;;;;;;;9.90;99.90;;;;;;1886937;75;20186;-75
2021/10/16 05:02:19;;;;;;;;;;;10.00;99.90;;;;;;1886507;75;20208;-75
2021/10/16 05:04:46;;;;;;;;;;;10.00;99.90;;;;;;1884035;74;20204;-74
2021/10/16 05:07:13;;;;;;;;;;;10.00;99.90;;;;;;1885777;75;20108;-74
2021/10/16 05:09:40;;;;;;;;;;;10.00;99.90;;;;;;1886613;75;20171;-74
2021/10/16 05:12:07;;;;;;;;;;;9.90;99.90;;;;;;1884971;75;20151;-74
2021/10/16 05:14:33;;;;;;;;;;;10.00;99.90;;;;;;1885260;75;20124;-74
2021/10/16 05:17:00;;;;;;;;;;;10.00;99.90;;;;;;1884821;75;20197;-75
2021/10/16 05:19:27;;;;;;;;;;;9.90;99.90;;;;;;1884610;75;20127;-75
2021/10/16 05:21:54;;;;;;;;;;;9.90;99.90;;;;;;1882803;75;20189;-75
2021/10/16 05:24:20;;;;;;;;;;;9.90;99.90;;;;;;1882753;75;20417;-76
2021/10/16 05:26:47;;;;;;;;;;;9.90;99.90;;;;;;1884192;75;20169;-77
2021/10/16 05:29:14;;;;;;;;;;;9.90;99.90;;;;;;1889498;75;20368;-75
2021/10/16 05:31:41;;;;;;;;;;;9.90;99.90;;;;;;1880512;75;20471;-76
2021/10/16 05:34:08;;;;;;;;;;;9.90;99.90;;;;;;1880730;75;20196;-76
2021/10/16 05:36:34;;;;;;;;;;;9.90;99.90;;;;;;1884402;75;20229;-74
2021/10/16 05:39:01;;;;;;;;;;;10.00;99.90;;;;;;1887332;75;20212;-73
2021/10/16 05:41:28;;;;;;;;;;;10.00;99.90;;;;;;1883823;74;20169;-73
2021/10/16 05:43:55;;;;;;;;;;;10.00;99.90;;;;;;1882314;75;20166;-73
2021/10/16 05:46:22;;;;;;;;;;;10.00;99.90;;;;;;1884705;75;20186;-74
2021/10/16 05:48:49;;;;;;;;;;;10.00;99.90;;;;;;1887321;75;20195;-74
2021/10/16 05:51:16;;;;;;;;;;;10.00;99.90;;;;;;1884515;75;20484;-73
2021/10/16 05:53:42;;;;;;;;;;;9.90;99.90;;;;;;1883198;75;20220;-74
2021/10/16 05:56:09;;;;;;;;;;;10.00;99.90;;;;;;1882227;75;20462;-75
2021/10/16 05:58:40;;;;;;;;;;;10.00;99.90;;;;;;1889384;75;20127;-75
2021/10/16 06:01:05;;;;;;;;;;;10.00;99.90;;;;;;1885100;75;20136;-75
2021/10/16 06:03:32;;;;;;;;;;;10.00;99.90;;;;;;1883730;75;20456;-76
2021/10/16 06:05:59;;;;;;;;;;;10.00;99.90;;;;;;1885416;75;20492;-76
2021/10/16 06:08:26;;;;;;;;;;;10.00;99.90;;;;;;1884362;75;20182;-76
2021/10/16 06:10:53;;;;;;;;;;;10.00;99.90;;;;;;1885189;75;20130;-75
2021/10/16 06:13:20;;;;;;;;;;;10.00;99.90;;;;;;1886976;75;20256;-75
2021/10/16 06:15:47;;;;;;;;;;;10.00;99.90;;;;;;1881701;75;20177;-75
2021/10/16 06:18:14;;;;;;;;;;;10.10;99.90;;;;;;1884206;75;20176;-76
2021/10/16 06:20:41;;;;;;;;;;;10.10;99.90;;;;;;1881341;75;20112;-76
2021/10/16 06:23:08;;;;;;;;;;;10.10;99.90;;;;;;1886307;75;20170;-76
2021/10/16 06:25:35;;;;;;;;;;;10.10;99.90;;;;;;1888529;75;20478;-77
2021/10/16 06:28:01;;;;;;;;;;;10.10;99.90;;;;;;1887575;75;20176;-76
2021/10/16 06:30:28;;;;;;;;;;;10.10;99.90;;;;;;1881703;75;20276;-76
2021/10/16 06:32:55;;;;;;;;;;;10.20;99.90;;;;;;1884831;75;20131;-77
2021/10/16 06:35:22;;;;;;;;;;;10.20;99.90;;;;;;1885484;75;20187;-76
2021/10/16 06:37:49;;;;;;;;;;;10.10;99.90;;;;;;1885142;75;20197;-75
2021/10/16 06:40:15;;;;;;;;;;;10.10;99.90;;;;;;1892956;72;20210;-72
2021/10/16 06:42:42;;;;;;;;;;;10.20;99.90;;;;;;1938304;73;20154;-72
2021/10/16 06:45:09;;;;;;;;;;;10.20;99.90;;;;;;1929481;73;20160;-72
2021/10/16 06:47:36;;;;;;;;;;;10.20;99.90;;;;;;1927473;73;20510;-72
2021/10/16 06:50:03;;;;;;;;;;;10.20;99.90;;;;;;1922773;73;20186;-72
2021/10/16 06:52:29;;;;;;;;;;;10.20;99.90;;;;;;1921103;73;20127;-72
2021/10/16 06:54:56;;;;;;;;;;;10.30;99.90;;;;;;1925282;73;20919;-70
2021/10/16 06:57:23;;;;;;;;;;;10.30;99.90;;;;;;1928798;73;20172;-71
2021/10/16 06:59:50;;;;;;;;;;;10.40;99.90;;;;;;1929905;73;20532;-71
2021/10/16 07:02:18;;;;;;;;;;;10.40;99.90;;;;;;1931524;73;20180;-72
2021/10/16 07:04:44;;;;;;;;;;;10.50;99.90;;;;;;1925395;73;20294;-71
2021/10/16 07:07:11;;;;;;;;;;;10.50;99.90;;;;;;1928353;73;20195;-73
2021/10/16 07:09:38;;;;;;;;;;;10.40;99.90;;;;;;1927335;73;20160;-72
2021/10/16 07:12:08;;;;;;;;;;;10.50;99.90;;;;;;1924822;71;20171;-72
2021/10/16 07:14:33;;;;;;;;;;;10.40;99.90;;;;;;1927797;73;20224;-74
2021/10/16 07:17:00;;;;;;;;;;;10.40;99.90;;;;;;1928671;73;20134;-73
2021/10/16 07:19:27;;;;;;;;;;;10.40;99.90;;;;;;1928669;73;20188;-74
2021/10/16 07:21:54;;;;;;;;;;;10.40;99.90;;;;;;1928022;73;20206;-73
2021/10/16 07:24:21;;;;;;;;;;;10.50;99.90;;;;;;1931956;73;20223;-73
2021/10/16 07:26:48;;;;;;;;;;;10.40;99.90;;;;;;1926544;73;20516;-73
2021/10/16 07:29:14;;;;;;;;;;;10.50;99.90;;;;;;1928663;73;20182;-74
2021/10/16 07:31:41;;;;;;;;;;;10.50;99.90;;;;;;1927878;73;20474;-73
2021/10/16 07:34:08;;;;;;;;;;;10.60;99.90;;;;;;1929135;73;20170;-71
2021/10/16 07:36:37;;;;;;;;;;;10.70;99.90;;;;;;1928388;73;20714;-72
2021/10/16 07:39:04;;;;;;;;;;;10.60;99.90;;;;;;1926622;73;20180;-72
2021/10/16 07:41:31;;;;;;;;;;;10.60;99.90;;;;;;1923254;73;20203;-74
2021/10/16 07:43:58;;;;;;;;;;;10.60;99.90;;;;;;1922911;73;20176;-73
2021/10/16 07:46:25;;;;;;;;;;;10.70;99.90;;;;;;1925239;73;20179;-77
2021/10/16 07:48:51;;;;;;;;;;;10.60;99.90;;;;;;1929490;73;20193;-70
2021/10/16 07:51:18;;;;;;;;;;;10.70;99.90;;;;;;1927614;73;20510;-70
2021/10/16 07:53:45;;;;;;;;;;;10.70;99.90;;;;;;1929499;73;20493;-69
2021/10/16 07:56:12;;;;;;;;;;;10.70;99.90;;;;;;1926244;73;20160;-69
2021/10/16 07:58:40;;;;;;;;;;;10.70;99.90;;;;;;1923552;72;20390;-70
2021/10/16 08:01:07;;;;;;;;;;;10.70;99.90;;;;;;1927990;73;20535;-72
2021/10/16 08:03:34;;;;;;;;;;;10.80;99.90;;;;;;1936766;72;20164;-71
2021/10/16 08:06:01;;;;;;;;;;;10.80;99.90;;;;;;1933173;72;20207;-70
2021/10/16 08:08:27;;;;;;;;;;;10.80;99.90;;;;;;1928420;72;20125;-69
2021/10/16 08:10:55;;;;;;;;;;;10.70;99.90;;;;;;1926171;72;20168;-71
2021/10/16 08:13:21;;;;;;;;;;;10.80;99.90;;;;;;1927264;73;20266;-71
2021/10/16 08:15:48;;;;;;;;;;;10.80;99.90;;;;;;1925696;73;20204;-71
2021/10/16 08:18:15;;;;;;;;;;;10.80;99.90;;;;;;1924368;73;20213;-71
2021/10/16 08:20:42;;;;;;;;;;;10.90;99.90;;;;;;1930847;72;20213;-71
2021/10/16 08:23:09;;;;;;;;;;;10.90;99.90;;;;;;1929256;73;20239;-71
2021/10/16 08:25:35;;;;;;;;;;;10.90;99.90;;;;;;1927693;73;20209;-71
2021/10/16 08:28:12;;;;;;;;;;;10.90;99.90;;;;;;1928971;73;20168;-71
2021/10/16 08:30:40;;;;;;;;;;;11.00;99.90;;;;;;1927618;73;20468;-71
2021/10/16 08:33:07;;;;;;;;;;;10.90;99.90;;;;;;1929401;73;20219;-71
2021/10/16 08:35:34;;;;;;;;;;;11.00;99.90;;;;;;1925338;73;20144;-69
2021/10/16 08:38:01;;;;;;;;;;;11.00;99.90;;;;;;1929278;73;20500;-71
2021/10/16 08:40:28;;;;;;;;;;;11.00;99.90;;;;;;1928343;73;20211;-70
2021/10/16 08:42:55;;;;;;;;;;;11.10;99.90;;;;;;1924147;73;20170;-70
2021/10/16 08:45:22;;;;;;;;;;;11.10;99.90;;;;;;1924246;73;20118;-72
2021/10/16 08:47:49;;;;;;;;;;;11.20;99.90;;;;;;1928297;73;20147;-72
2021/10/16 08:50:15;;;;;;;;;;;11.20;99.90;;;;;;1923970;73;20176;-71
2021/10/16 08:52:42;;;;;;;;;;;11.20;99.90;;;;;;1929398;73;20255;-70
2021/10/16 08:55:09;;;;;;;;;;;11.20;99.90;;;;;;1925377;73;20200;-70
2021/10/16 08:57:41;;;;;;;;;;;11.30;99.90;;;;;;1928840;73;20238;-71
2021/10/16 09:00:26;;;;;;;;;;;11.30;99.90;;;;;;1890022;74;20194;-70
2021/10/16 09:02:53;;;;;;;;;;;11.40;99.90;;;;;;1887368;74;20167;-70
2021/10/16 09:05:20;;;;;;;;;;;11.40;99.90;;;;;;1851425;75;20177;-71
2021/10/16 09:07:47;;;;;;;;;;;11.40;99.90;;;;;;1856344;75;20223;-71
2021/10/16 09:10:21;;;;;;;;;;;11.40;99.90;;;;;;1854931;75;20211;-70
2021/10/16 09:12:47;;;;;;;;;;;11.40;99.90;;;;;;1855260;75;20643;-69
2021/10/16 09:15:21;;;;;;;;;;;11.50;99.90;;;;;;1858579;75;20184;-70
2021/10/16 09:18:01;;;;;;;;;;;11.50;99.90;;;;;;1892255;74;20231;-69
2021/10/16 09:20:35;;;;;;;;;;;11.60;99.90;;;;;;1892177;74;20233;-69
2021/10/16 09:23:06;;;;;;;;;;;11.60;99.90;;;;;;1859875;76;20240;-69
2021/10/16 09:25:34;;;;;;;;;;;11.50;99.90;;;;;;1892264;74;20139;-69
2021/10/16 09:28:13;;;;;;;;;;;11.50;99.90;;;;;;1891364;75;20210;-69
2021/10/16 09:30:44;;;;;;;;;;;11.60;99.90;;;;;;1901948;74;20202;-73
2021/10/16 09:33:10;;;;;;;;;;;11.70;99.90;;;;;;1898406;74;20171;-72
2021/10/16 09:35:37;;;;;;;;;;;11.70;99.90;;;;;;1895766;74;20167;-72
2021/10/16 09:38:04;;;;;;;;;;;11.80;99.90;;;;;;1892718;74;20196;-73
2021/10/16 09:40:37;;;;;;;;;;;11.80;99.90;;;;;;1888383;74;20199;-71
2021/10/16 09:43:18;;;;;;;;;;;11.90;99.90;;;;;;1894454;74;20175;-71
2021/10/16 09:45:46;;;;;;;;;;;11.90;99.90;;;;;;1892803;74;20430;-74
2021/10/16 09:48:14;;;;;;;;;;;11.90;99.90;;;;;;1892375;74;20180;-71
2021/10/16 09:50:42;;;;;;;;;;;11.90;99.90;;;;;;1892588;74;20425;-72
2021/10/16 09:53:18;;;;;;;;;;;12.00;99.90;;;;;;1893114;74;20313;-71
2021/10/16 09:55:45;;;;;;;;;;;12.00;99.90;;;;;;1888780;74;20210;-70
2021/10/16 09:58:14;;;;;;;;;;;12.00;99.90;;;;;;1889153;74;20203;-73
2021/10/16 10:00:41;;;;;;;;;;;12.10;99.90;;;;;;1894712;74;20181;-71
2021/10/16 10:03:10;;;;;;;;;;;12.10;99.90;;;;;;1890757;74;20123;-70
2021/10/16 10:05:38;;;;;;;;;;;12.10;99.90;;;;;;1886442;74;20167;-70
2021/10/16 10:08:05;;;;;;;;;;;12.20;99.90;;;;;;1894232;74;20176;-71
2021/10/16 10:10:32;;;;;;;;;;;12.20;99.90;;;;;;1892557;74;20219;-72
2021/10/16 10:12:59;;;;;;;;;;;12.20;99.90;;;;;;1893060;74;20497;-72
2021/10/16 10:15:26;;;;;;;;;;;12.30;99.90;;;;;;1890391;74;20171;-73
2021/10/16 10:17:53;;;;;;;;;;;12.30;99.90;;;;;;1894047;74;20210;-72
2021/10/16 10:20:21;;;;;;;;;;;12.40;99.90;;;;;;1891050;74;20210;-73
2021/10/16 10:22:48;;;;;;;;;;;12.40;99.90;;;;;;1891521;74;20262;-73
2021/10/16 10:25:25;;;;;;;;;;;12.50;99.90;;;;;;1886511;74;20213;-72
2021/10/16 10:27:53;;;;;;;;;;;12.50;99.90;;;;;;1890299;74;20248;-71
2021/10/16 10:30:37;;;;;;;;;;;12.60;99.90;;;;;;1895117;74;20145;-72
2021/10/16 10:33:20;;;;;;;;;;;12.60;99.90;;;;;;1892892;74;20213;-72
2021/10/16 10:36:00;;;;;;;;;;;12.70;99.90;;;;;;1897540;74;20498;-72
2021/10/16 10:38:31;;;;;;;;;;;12.60;99.90;;;;;;1889832;74;20171;-71
2021/10/16 10:40:58;;;;;;;;;;;12.60;99.90;;;;;;1888918;74;20162;-72
2021/10/16 10:43:38;;;;;;;;;;;12.70;99.90;;;;;;1890379;74;20166;-71
2021/10/16 10:46:14;;;;;;;;;;;12.70;99.90;;;;;;1894597;74;20177;-71
2021/10/16 10:48:42;;;;;;;;;;;12.80;99.90;;;;;;1895503;74;20517;-72
2021/10/16 10:51:09;;;;;;;;;;;12.70;99.90;;;;;;1889967;74;20546;-71
2021/10/16 10:53:37;;;;;;;;;;;12.70;99.90;;;;;;1893476;74;20460;-71
2021/10/16 10:56:07;;;;;;;;;;;12.70;99.90;;;;;;1891614;74;20175;-72
2021/10/16 10:58:38;;;;;;;;;;;12.70;99.90;;;;;;1896721;74;20191;-71
2021/10/16 11:01:05;;;;;;;;;;;12.70;99.90;;;;;;1890760;74;20772;-69
2021/10/16 11:03:35;;;;;;;;;;;12.70;99.90;;;;;;1894018;74;20313;-71
2021/10/16 11:06:12;;;;;;;;;;;12.70;99.90;;;;;;1891863;74;20165;-69
2021/10/16 11:08:39;;;;;;;;;;;12.70;99.90;;;;;;1890529;74;20122;-73
2021/10/16 11:11:06;;;;;;;;;;;12.70;99.90;;;;;;1892384;74;20587;-73
2021/10/16 11:13:34;;;;;;;;;;;12.70;99.90;;;;;;1895235;74;20349;-73
2021/10/16 11:16:02;;;;;;;;;;;12.70;99.90;;;;;;1896604;74;20411;-73
2021/10/16 11:18:29;;;;;;;;;;;12.60;99.90;;;;;;1893364;74;20454;-73
2021/10/16 11:20:57;;;;;;;;;;;12.60;99.90;;;;;;1894051;74;20235;-73
2021/10/16 11:23:25;;;;;;;;;;;12.70;99.90;;;;;;1893041;74;20520;-73
2021/10/16 11:25:56;;;;;;;;;;;12.70;99.90;;;;;;1895436;74;20208;-70
2021/10/16 11:28:23;;;;;;;;;;;12.70;99.90;;;;;;1891701;74;20206;-71
2021/10/16 11:30:51;;;;;;;;;;;12.60;99.90;;;;;;1893689;74;20127;-72
2021/10/16 11:33:23;;;;;;;;;;;12.60;99.90;;;;;;1893206;74;20238;-72
2021/10/16 11:35:52;;;;;;;;;;;12.70;99.90;;;;;;1894566;74;20402;-72
2021/10/16 11:38:22;;;;;;;;;;;12.60;99.90;;;;;;1892214;74;20167;-72
2021/10/16 11:40:49;;;;;;;;;;;12.60;99.90;;;;;;1890078;74;20195;-70
2021/10/16 11:43:18;;;;;;;;;;;12.60;99.90;;;;;;1891247;74;20167;-72
2021/10/16 11:45:46;;;;;;;;;;;12.60;99.90;;;;;;1892803;74;20224;-72
2021/10/16 11:48:14;;;;;;;;;;;12.60;99.90;;;;;;1891531;74;20177;-73
2021/10/16 11:50:42;;;;;;;;;;;12.50;99.90;;;;;;1893399;74;20173;-73
2021/10/16 11:53:12;;;;;;;;;;;12.50;99.90;;;;;;1892344;74;20120;-72
2021/10/16 11:55:47;;;;;;;;;;;12.50;99.90;;;;;;1893476;74;20169;-73
2021/10/16 11:58:20;;;;;;;;;;;12.60;99.90;;;;;;1891775;74;20173;-73
2021/10/16 12:00:45;;;;;;;;;;;12.60;99.90;;;;;;1892460;74;20213;-73
2021/10/16 12:03:16;;;;;;;;;;;12.50;99.90;;;;;;1890084;74;20173;-73
2021/10/16 12:05:44;;;;;;;;;;;12.60;99.90;;;;;;1894993;74;20161;-73
2021/10/16 12:08:12;;;;;;;;;;;12.50;99.90;;;;;;1895157;74;20411;-73
2021/10/16 12:10:41;;;;;;;;;;;12.50;99.90;;;;;;1891472;74;20201;-72
2021/10/16 12:13:09;;;;;;;;;;;12.50;99.90;;;;;;1888586;74;20195;-73
2021/10/16 12:15:37;;;;;;;;;;;12.50;99.90;;;;;;1886470;74;20225;-73
2021/10/16 12:18:05;;;;;;;;;;;12.60;99.90;;;;;;1892573;74;20203;-72
2021/10/16 12:20:39;;;;;;;;;;;12.50;99.90;;;;;;1892674;74;20260;-72
2021/10/16 12:23:06;;;;;;;;;;;12.50;99.90;;;;;;1885690;74;20174;-71
2021/10/16 12:25:34;;;;;;;;;;;12.50;99.90;;;;;;1892536;73;20155;-72
2021/10/16 12:28:02;;;;;;;;;;;12.60;99.90;;;;;;1889750;74;20112;-72
2021/10/16 12:30:29;;;;;;;;;;;12.50;99.90;;;;;;1895069;74;20353;-73
2021/10/16 12:33:03;;;;;;;;;;;12.60;99.90;;;;;;1890876;74;20159;-72
2021/10/16 12:35:30;;;;;;;;;;;12.60;99.90;;;;;;1893886;74;20550;-71
2021/10/16 12:37:58;;;;;;;;;;;12.60;99.90;;;;;;1895497;74;20116;-72
2021/10/16 12:40:36;;;;;;;;;;;12.60;99.90;;;;;;1893876;74;20186;-72
2021/10/16 12:43:03;;;;;;;;;;;12.50;99.90;;;;;;1892175;74;20202;-72
2021/10/16 12:45:37;;;;;;;;;;;12.50;99.90;;;;;;1892207;74;20171;-72
2021/10/16 12:48:22;;;;;;;;;;;12.60;99.90;;;;;;1889905;74;20151;-72
2021/10/16 12:50:51;;;;;;;;;;;12.70;99.90;;;;;;1892255;74;20461;-72
2021/10/16 12:53:18;;;;;;;;;;;12.70;99.90;;;;;;1893850;74;20182;-76
2021/10/16 12:55:45;;;;;;;;;;;12.60;99.90;;;;;;1890775;74;20159;-74
2021/10/16 12:58:11;;;;;;;;;;;12.60;99.90;;;;;;1891265;74;20125;-75
2021/10/16 13:00:40;;;;;;;;;;;12.60;99.90;;;;;;1892722;74;20560;-74
2021/10/16 13:03:08;;;;;;;;;;;12.60;99.90;;;;;;1891611;74;20163;-74
2021/10/16 13:05:35;;;;;;;;;;;12.60;99.90;;;;;;1890598;74;20267;-74
2021/10/16 13:08:02;;;;;;;;;;;12.60;99.90;;;;;;1888183;74;20209;-75
2021/10/16 13:10:29;;;;;;;;;;;12.60;99.90;;;;;;1892107;74;20222;-74
2021/10/16 13:12:56;;;;;;;;;;;12.60;99.90;;;;;;1892342;74;20108;-74
2021/10/16 13:15:23;;;;;;;;;;;12.60;99.90;;;;;;1894619;74;20488;-74
2021/10/16 13:17:50;;;;;;;;;;;12.70;99.90;;;;;;1876458;73;20223;-74
2021/10/16 13:20:17;;;;;;;;;;;12.70;99.90;;;;;;1843042;76;20239;-74
2021/10/16 13:22:45;;;;;;;;;;;12.70;99.90;;;;;;1830580;77;20196;-74
2021/10/16 13:25:13;;;;;;;;;;;12.70;99.90;;;;;;1832159;77;20172;-73
2021/10/16 13:27:40;;;;;;;;;;;12.70;99.90;;;;;;1841876;76;20177;-74
2021/10/16 13:30:07;;;;;;;;;;;12.70;99.90;;;;;;1855527;76;20201;-73
2021/10/16 13:32:34;;;;;;;;;;;12.70;99.90;;;;;;1858390;76;20161;-73
2021/10/16 13:35:01;;;;;;;;;;;12.70;99.90;;;;;;1861455;76;20215;-73
2021/10/16 13:37:28;;;;;;;;;;;12.70;99.90;;;;;;1858699;76;20197;-74
2021/10/16 13:39:56;;;;;;;;;;;12.70;99.90;;;;;;1859539;76;20223;-74
2021/10/16 13:42:23;;;;;;;;;;;12.70;99.90;;;;;;1862170;75;20511;-74
2021/10/16 13:44:50;;;;;;;;;;;12.70;99.90;;;;;;1859718;76;20934;-74
2021/10/16 13:47:17;;;;;;;;;;;12.70;99.90;;;;;;1858730;76;20127;-73
2021/10/16 13:49:44;;;;;;;;;;;12.70;99.90;;;;;;1859974;76;20180;-74
2021/10/16 13:52:11;;;;;;;;;;;12.70;99.90;;;;;;1859487;76;20179;-74
2021/10/16 13:54:37;;;;;;;;;;;12.70;99.90;;;;;;1860450;76;20212;-74
2021/10/16 13:57:04;;;;;;;;;;;12.70;99.90;;;;;;1872704;75;20216;-73
2021/10/16 13:59:31;;;;;;;;;;;12.70;99.90;;;;;;1872087;76;20121;-74
2021/10/16 14:01:58;;;;;;;;;;;12.70;99.90;;;;;;1874700;75;20223;-74
2021/10/16 14:04:25;;;;;;;;;;;12.70;99.90;;;;;;1872225;75;20165;-74
2021/10/16 14:06:52;;;;;;;;;;;12.70;99.90;;;;;;1872005;75;20353;-74
2021/10/16 14:09:19;;;;;;;;;;;12.70;99.90;;;;;;1873231;75;20197;-74
2021/10/16 14:11:46;;;;;;;;;;;12.70;99.90;;;;;;1871025;75;20244;-74
2021/10/16 14:14:13;;;;;;;;;;;12.70;99.90;;;;;;1866707;75;20219;-74
2021/10/16 14:16:39;;;;;;;;;;;12.80;99.90;;;;;;1869947;75;20169;-73
2021/10/16 14:19:06;;;;;;;;;;;12.70;99.90;;;;;;1867255;75;20224;-73
2021/10/16 14:21:37;;;;;;;;;;;12.70;99.90;;;;;;1869973;75;20174;-73
2021/10/16 14:24:02;;;;;;;;;;;12.70;99.90;;;;;;1873091;75;20128;-73